sensor_id;sensor_type;location;lat;lon;timestamp;pressure;altitude;pressure_sealevel;temperature;humidity
46690;BME280;32423;45.398;10.874;2023-03-01T00:02:49;101233.53;;;5.73;56.47
46690;BME280;32423;45.398;10.874;2023-03-01T00:05:42;101221.09;;;5.82;56.78
46690;BME280;32423;45.398;10.874;2023-03-01T00:08:34;101226.75;;;5.75;56.52
46690;BME280;32423;45.398;10.874;2023-03-01T00:11:27;101222.19;;;5.55;56.86
46690;BME280;32423;45.398;10.874;2023-03-01T00:14:19;101223.78;;;5.51;57.50
46690;BME280;32423;45.398;10.874;2023-03-01T00:17:11;101220.28;;;5.66;56.78
46690;BME280;32423;45.398;10.874;2023-03-01T00:20:04;101219.22;;;5.77;56.14
46690;BME280;32423;45.398;10.874;2023-03-01T00:22:56;101209.50;;;5.81;55.56
46690;BME280;32423;45.398;10.874;2023-03-01T00:41:33;101186.28;;;5.20;57.73
46690;BME280;32423;45.398;10.874;2023-03-01T00:44:23;101180.06;;;5.24;57.25
46690;BME280;32423;45.398;10.874;2023-03-01T00:47:15;101179.00;;;5.30;56.88
46690;BME280;32423;45.398;10.874;2023-03-01T00:50:07;101182.53;;;5.31;56.83
46690;BME280;32423;45.398;10.874;2023-03-01T00:52:59;101172.28;;;5.28;57.05
46690;BME280;32423;45.398;10.874;2023-03-01T00:55:48;101181.13;;;5.13;57.25
46690;BME280;32423;45.398;10.874;2023-03-01T00:58:40;101178.97;;;5.00;57.40
46690;BME280;32423;45.398;10.874;2023-03-01T01:01:32;101177.63;;;4.92;57.87
46690;BME280;32423;45.398;10.874;2023-03-01T01:04:24;101172.50;;;5.01;57.71
46690;BME280;32423;45.398;10.874;2023-03-01T01:07:17;101157.41;;;4.95;57.65
46690;BME280;32423;45.398;10.874;2023-03-01T01:10:09;101164.44;;;5.11;57.47
46690;BME280;32423;45.398;10.874;2023-03-01T01:13:01;101163.34;;;5.02;57.67
46690;BME280;32423;45.398;10.874;2023-03-01T01:15:53;101154.47;;;5.11;57.32
46690;BME280;32423;45.398;10.874;2023-03-01T01:18:45;101142.31;;;4.94;57.59
46690;BME280;32423;45.398;10.874;2023-03-01T01:21:35;101142.88;;;5.01;57.71
46690;BME280;32423;45.398;10.874;2023-03-01T01:24:27;101143.13;;;5.04;57.22
46690;BME280;32423;45.398;10.874;2023-03-01T01:27:19;101129.25;;;4.45;59.22
46690;BME280;32423;45.398;10.874;2023-03-01T01:30:08;101132.03;;;4.70;58.36
46690;BME280;32423;45.398;10.874;2023-03-01T01:33:00;101120.34;;;4.35;59.38
46690;BME280;32423;45.398;10.874;2023-03-01T01:35:52;101120.88;;;4.32;59.54
46690;BME280;32423;45.398;10.874;2023-03-01T01:38:44;101112.28;;;4.45;58.67
46690;BME280;32423;45.398;10.874;2023-03-01T01:41:36;101101.59;;;4.70;58.62
46690;BME280;32423;45.398;10.874;2023-03-01T01:44:28;101107.28;;;4.94;57.37
46690;BME280;32423;45.398;10.874;2023-03-01T01:47:22;101099.47;;;4.82;57.67
46690;BME280;32423;45.398;10.874;2023-03-01T01:50:15;101101.63;;;4.95;57.42
46690;BME280;32423;45.398;10.874;2023-03-01T01:53:07;101092.16;;;4.88;57.39
46690;BME280;32423;45.398;10.874;2023-03-01T01:56:02;101087.34;;;5.10;57.56
46690;BME280;32423;45.398;10.874;2023-03-01T01:58:55;101081.69;;;5.06;56.91
46690;BME280;32423;45.398;10.874;2023-03-01T02:01:47;101084.91;;;4.98;57.07
46690;BME280;32423;45.398;10.874;2023-03-01T02:04:39;101080.63;;;4.97;57.61
46690;BME280;32423;45.398;10.874;2023-03-01T02:07:31;101082.19;;;4.78;57.88
46690;BME280;32423;45.398;10.874;2023-03-01T02:10:23;101071.16;;;4.80;57.85
46690;BME280;32423;45.398;10.874;2023-03-01T02:13:16;101076.81;;;4.88;57.30
46690;BME280;32423;45.398;10.874;2023-03-01T02:16:12;101064.16;;;4.79;58.13
46690;BME280;32423;45.398;10.874;2023-03-01T02:19:06;101062.50;;;4.67;57.55
46690;BME280;32423;45.398;10.874;2023-03-01T02:22:14;101062.50;;;4.67;58.51
46690;BME280;32423;45.398;10.874;2023-03-01T02:25:11;101050.94;;;4.57;58.24
46690;BME280;32423;45.398;10.874;2023-03-01T02:31:05;101050.94;;;4.47;58.22
46690;BME280;32423;45.398;10.874;2023-03-01T02:34:14;101039.56;;;4.29;58.49
46690;BME280;32423;45.398;10.874;2023-03-01T02:37:08;101042.22;;;4.19;58.42
46690;BME280;32423;45.398;10.874;2023-03-01T02:40:02;101036.50;;;3.96;59.19
46690;BME280;32423;45.398;10.874;2023-03-01T02:42:56;101036.66;;;3.69;60.10
46690;BME280;32423;45.398;10.874;2023-03-01T02:45:54;101033.78;;;3.38;61.88
46690;BME280;32423;45.398;10.874;2023-03-01T02:48:49;101033.47;;;3.82;60.36
46690;BME280;32423;45.398;10.874;2023-03-01T02:51:44;101021.94;;;3.92;59.99
46690;BME280;32423;45.398;10.874;2023-03-01T02:54:46;101013.28;;;3.74;60.82
46690;BME280;32423;45.398;10.874;2023-03-01T02:57:35;101016.28;;;3.83;59.78
46690;BME280;32423;45.398;10.874;2023-03-01T03:00:40;101015.25;;;3.94;59.68
46690;BME280;32423;45.398;10.874;2023-03-01T03:03:34;101006.16;;;4.10;59.75
46690;BME280;32423;45.398;10.874;2023-03-01T03:06:26;101003.97;;;4.02;59.50
46690;BME280;32423;45.398;10.874;2023-03-01T03:09:15;101005.34;;;4.10;59.64
46690;BME280;32423;45.398;10.874;2023-03-01T03:12:07;101010.50;;;4.21;59.54
46690;BME280;32423;45.398;10.874;2023-03-01T03:14:59;101008.84;;;4.15;59.90
46690;BME280;32423;45.398;10.874;2023-03-01T03:17:58;101005.88;;;4.12;59.88
46690;BME280;32423;45.398;10.874;2023-03-01T03:20:48;101008.03;;;4.15;60.07
46690;BME280;32423;45.398;10.874;2023-03-01T03:23:41;101011.03;;;4.28;59.74
46690;BME280;32423;45.398;10.874;2023-03-01T03:26:33;101001.34;;;4.32;59.84
46690;BME280;32423;45.398;10.874;2023-03-01T03:29:25;100998.63;;;4.27;60.35
46690;BME280;32423;45.398;10.874;2023-03-01T03:32:17;101007.22;;;4.14;61.29
46690;BME280;32423;45.398;10.874;2023-03-01T03:35:09;101005.09;;;4.21;60.12
46690;BME280;32423;45.398;10.874;2023-03-01T03:38:03;101003.22;;;4.37;60.18
46690;BME280;32423;45.398;10.874;2023-03-01T03:41:05;101000.53;;;4.42;59.87
46690;BME280;32423;45.398;10.874;2023-03-01T03:43:57;100998.09;;;4.15;61.07
46690;BME280;32423;45.398;10.874;2023-03-01T03:46:49;100994.84;;;4.08;61.05
46690;BME280;32423;45.398;10.874;2023-03-01T03:49:38;100992.88;;;3.83;62.67
46690;BME280;32423;45.398;10.874;2023-03-01T03:52:28;101000.06;;;3.68;64.07
46690;BME280;32423;45.398;10.874;2023-03-01T03:55:20;100995.91;;;4.12;62.59
46690;BME280;32423;45.398;10.874;2023-03-01T03:58:12;100989.53;;;4.59;61.65
46690;BME280;32423;45.398;10.874;2023-03-01T04:01:04;100990.06;;;4.41;60.46
46690;BME280;32423;45.398;10.874;2023-03-01T04:03:56;100998.69;;;4.58;60.32
46690;BME280;32423;45.398;10.874;2023-03-01T04:06:48;100992.78;;;4.81;59.49
46690;BME280;32423;45.398;10.874;2023-03-01T04:09:40;100986.84;;;4.74;59.31
46690;BME280;32423;45.398;10.874;2023-03-01T04:12:32;100986.41;;;3.79;62.74
46690;BME280;32423;45.398;10.874;2023-03-01T04:15:24;100983.97;;;3.78;63.47
46690;BME280;32423;45.398;10.874;2023-03-01T04:18:16;100972.28;;;4.45;61.15
46690;BME280;32423;45.398;10.874;2023-03-01T04:21:08;100967.97;;;4.74;60.27
46690;BME280;32423;45.398;10.874;2023-03-01T04:24:00;100964.22;;;4.55;60.81
46690;BME280;32423;45.398;10.874;2023-03-01T04:26:52;100976.59;;;4.30;61.49
46690;BME280;32423;45.398;10.874;2023-03-01T04:29:44;100970.59;;;3.98;63.56
46690;BME280;32423;45.398;10.874;2023-03-01T04:32:36;100966.28;;;3.97;63.59
46690;BME280;32423;45.398;10.874;2023-03-01T04:35:25;100964.16;;;4.04;63.47
46690;BME280;32423;45.398;10.874;2023-03-01T04:38:17;100959.09;;;4.43;62.07
46690;BME280;32423;45.398;10.874;2023-03-01T04:41:10;100966.91;;;4.60;62.11
46690;BME280;32423;45.398;10.874;2023-03-01T04:44:02;100966.66;;;4.71;61.48
46690;BME280;32423;45.398;10.874;2023-03-01T04:46:54;100968.53;;;4.76;61.29
46690;BME280;32423;45.398;10.874;2023-03-01T04:49:43;100977.69;;;4.90;61.05
46690;BME280;32423;45.398;10.874;2023-03-01T04:52:35;100969.59;;;4.75;61.19
46690;BME280;32423;45.398;10.874;2023-03-01T04:55:27;100970.16;;;4.77;61.14
46690;BME280;32423;45.398;10.874;2023-03-01T04:58:20;100971.75;;;4.88;60.57
46690;BME280;32423;45.398;10.874;2023-03-01T05:01:12;100971.47;;;4.90;60.73
46690;BME280;32423;45.398;10.874;2023-03-01T05:04:07;100973.09;;;4.81;60.83
46690;BME280;32423;45.398;10.874;2023-03-01T05:07:02;100974.44;;;4.83;60.54
46690;BME280;32423;45.398;10.874;2023-03-01T05:09:51;100980.94;;;4.87;60.84
46690;BME280;32423;45.398;10.874;2023-03-01T05:12:43;100979.81;;;4.88;61.20
46690;BME280;32423;45.398;10.874;2023-03-01T05:15:36;100976.88;;;4.85;60.71
46690;BME280;32423;45.398;10.874;2023-03-01T05:18:28;100960.72;;;4.64;62.37
46690;BME280;32423;45.398;10.874;2023-03-01T05:21:20;100960.16;;;4.72;61.35
46690;BME280;32423;45.398;10.874;2023-03-01T05:24:12;100964.47;;;4.63;61.84
46690;BME280;32423;45.398;10.874;2023-03-01T05:27:03;100959.03;;;4.03;64.16
46690;BME280;32423;45.398;10.874;2023-03-01T05:29:55;100962.59;;;4.54;62.46
46690;BME280;32423;45.398;10.874;2023-03-01T05:32:46;100963.59;;;4.02;63.57
46690;BME280;32423;45.398;10.874;2023-03-01T05:35:37;100960.31;;;3.80;64.97
46690;BME280;32423;45.398;10.874;2023-03-01T05:38:29;100950.75;;;4.24;63.89
46690;BME280;32423;45.398;10.874;2023-03-01T05:41:21;100959.38;;;4.62;62.58
46690;BME280;32423;45.398;10.874;2023-03-01T05:44:13;100958.56;;;4.87;61.32
46690;BME280;32423;45.398;10.874;2023-03-01T05:47:05;100957.97;;;5.10;59.87
46690;BME280;32423;45.398;10.874;2023-03-01T05:49:57;100966.91;;;4.75;61.39
46690;BME280;32423;45.398;10.874;2023-03-01T05:52:50;100956.94;;;4.35;63.08
46690;BME280;32423;45.398;10.874;2023-03-01T05:55:40;100955.59;;;4.43;63.00
46690;BME280;32423;45.398;10.874;2023-03-01T05:58:33;100956.69;;;4.42;63.15
46690;BME280;32423;45.398;10.874;2023-03-01T06:01:25;100955.06;;;4.41;63.08
46690;BME280;32423;45.398;10.874;2023-03-01T06:04:17;100965.25;;;4.23;64.04
46690;BME280;32423;45.398;10.874;2023-03-01T06:07:09;100967.72;;;4.65;62.21
46690;BME280;32423;45.398;10.874;2023-03-01T06:10:00;100973.88;;;5.06;62.54
46690;BME280;32423;45.398;10.874;2023-03-01T06:12:55;100968.22;;;5.23;60.58
46690;BME280;32423;45.398;10.874;2023-03-01T06:15:47;100975.22;;;4.99;62.04
46690;BME280;32423;45.398;10.874;2023-03-01T06:18:41;100977.66;;;5.05;60.73
46690;BME280;32423;45.398;10.874;2023-03-01T06:21:35;100977.38;;;5.17;60.92
46690;BME280;32423;45.398;10.874;2023-03-01T06:24:27;100978.97;;;5.33;60.72
46690;BME280;32423;45.398;10.874;2023-03-01T06:27:20;100982.97;;;5.46;60.89
46690;BME280;32423;45.398;10.874;2023-03-01T06:30:15;100974.69;;;5.17;61.48
46690;BME280;32423;45.398;10.874;2023-03-01T06:33:10;100971.13;;;5.42;61.30
46690;BME280;32423;45.398;10.874;2023-03-01T06:36:04;100966.88;;;5.05;62.15
46690;BME280;32423;45.398;10.874;2023-03-01T06:38:59;100967.41;;;5.23;61.79
46690;BME280;32423;45.398;10.874;2023-03-01T06:41:51;100955.22;;;5.35;61.58
46690;BME280;32423;45.398;10.874;2023-03-01T06:44:45;100954.28;;;5.70;60.20
46690;BME280;32423;45.398;10.874;2023-03-01T06:47:40;100947.50;;;6.27;60.25
46690;BME280;32423;45.398;10.874;2023-03-01T06:50:35;100951.22;;;6.36;58.92
46690;BME280;32423;45.398;10.874;2023-03-01T06:53:30;100952.69;;;6.18;59.50
46690;BME280;32423;45.398;10.874;2023-03-01T06:56:22;100944.84;;;6.56;58.87
46690;BME280;32423;45.398;10.874;2023-03-01T06:59:16;100952.28;;;6.35;58.38
46690;BME280;32423;45.398;10.874;2023-03-01T07:02:11;100957.69;;;6.35;58.81
46690;BME280;32423;45.398;10.874;2023-03-01T07:05:06;100956.34;;;6.37;59.52
46690;BME280;32423;45.398;10.874;2023-03-01T07:08:01;100953.59;;;6.76;58.15
46690;BME280;32423;45.398;10.874;2023-03-01T07:10:59;100952.00;;;6.75;57.74
46690;BME280;32423;45.398;10.874;2023-03-01T07:13:53;100953.22;;;6.59;58.47
46690;BME280;32423;45.398;10.874;2023-03-01T07:16:48;100952.94;;;6.90;57.90
46690;BME280;32423;45.398;10.874;2023-03-01T07:19:42;100943.75;;;6.91;57.48
46690;BME280;32423;45.398;10.874;2023-03-01T07:22:38;100947.56;;;7.13;57.82
46690;BME280;32423;45.398;10.874;2023-03-01T07:25:33;100947.34;;;7.34;56.88
46690;BME280;32423;45.398;10.874;2023-03-01T07:28:27;100940.19;;;7.43;56.39
46690;BME280;32423;45.398;10.874;2023-03-01T07:31:22;100945.44;;;7.58;55.91
46690;BME280;32423;45.398;10.874;2023-03-01T07:34:16;100942.84;;;7.48;56.32
46690;BME280;32423;45.398;10.874;2023-03-01T07:37:11;100943.88;;;7.52;56.29
46690;BME280;32423;45.398;10.874;2023-03-01T07:40:07;100944.97;;;7.74;55.99
46690;BME280;32423;45.398;10.874;2023-03-01T07:42:59;100943.09;;;8.12;55.74
46690;BME280;32423;45.398;10.874;2023-03-01T07:45:54;100944.91;;;8.17;55.81
46690;BME280;32423;45.398;10.874;2023-03-01T07:48:45;100946.38;;;7.91;56.85
46690;BME280;32423;45.398;10.874;2023-03-01T07:51:40;100940.16;;;8.09;57.11
46690;BME280;32423;45.398;10.874;2023-03-01T07:54:34;100927.25;;;8.38;56.43
46690;BME280;32423;45.398;10.874;2023-03-01T07:57:29;100914.16;;;8.45;56.04
46690;BME280;32423;45.398;10.874;2023-03-01T08:00:24;100902.78;;;8.76;56.37
46690;BME280;32423;45.398;10.874;2023-03-01T08:03:18;100897.91;;;8.91;55.48
46690;BME280;32423;45.398;10.874;2023-03-01T08:06:13;100902.13;;;8.97;55.46
46690;BME280;32423;45.398;10.874;2023-03-01T08:09:05;100903.03;;;8.93;55.03
46690;BME280;32423;45.398;10.874;2023-03-01T08:12:00;100905.97;;;9.37;55.13
46690;BME280;32423;45.398;10.874;2023-03-01T08:14:55;100885.34;;;9.36;55.14
46690;BME280;32423;45.398;10.874;2023-03-01T08:17:50;100885.44;;;9.59;53.81
46690;BME280;32423;45.398;10.874;2023-03-01T08:20:42;100876.13;;;10.23;51.90
46690;BME280;32423;45.398;10.874;2023-03-01T08:23:37;100875.75;;;10.02;51.53
46690;BME280;32423;45.398;10.874;2023-03-01T08:26:31;100865.59;;;10.08;51.73
46690;BME280;32423;45.398;10.874;2023-03-01T08:29:26;100861.53;;;10.72;49.86
46690;BME280;32423;45.398;10.874;2023-03-01T08:32:20;100865.66;;;10.61;49.39
46690;BME280;32423;45.398;10.874;2023-03-01T08:35:15;100872.69;;;10.62;49.65
46690;BME280;32423;45.398;10.874;2023-03-01T08:38:10;100872.94;;;10.52;49.73
46690;BME280;32423;45.398;10.874;2023-03-01T08:41:02;100888.47;;;10.82;48.73
46690;BME280;32423;45.398;10.874;2023-03-01T08:43:54;100887.41;;;10.39;49.57
46690;BME280;32423;45.398;10.874;2023-03-01T08:46:50;100884.31;;;10.09;50.74
46690;BME280;32423;45.398;10.874;2023-03-01T08:49:39;100867.09;;;9.78;51.19
46690;BME280;32423;45.398;10.874;2023-03-01T08:52:34;100879.50;;;9.57;51.59
46690;BME280;32423;45.398;10.874;2023-03-01T08:55:28;100859.63;;;9.20;52.49
46690;BME280;32423;45.398;10.874;2023-03-01T08:58:23;100861.66;;;9.28;52.56
46690;BME280;32423;45.398;10.874;2023-03-01T09:01:18;100855.72;;;9.13;52.31
46690;BME280;32423;45.398;10.874;2023-03-01T09:04:14;100855.72;;;9.13;52.16
46690;BME280;32423;45.398;10.874;2023-03-01T09:07:08;100838.41;;;9.50;51.40
46690;BME280;32423;45.398;10.874;2023-03-01T09:10:03;100834.44;;;9.69;51.64
46690;BME280;32423;45.398;10.874;2023-03-01T09:12:57;100842.28;;;9.93;50.29
46690;BME280;32423;45.398;10.874;2023-03-01T09:15:52;100841.47;;;10.28;49.02
46690;BME280;32423;45.398;10.874;2023-03-01T09:18:48;100829.66;;;10.33;49.09
46690;BME280;32423;45.398;10.874;2023-03-01T09:21:42;100822.78;;;10.13;49.76
46690;BME280;32423;45.398;10.874;2023-03-01T09:24:44;100823.75;;;9.73;51.10
46690;BME280;32423;45.398;10.874;2023-03-01T09:27:39;100823.91;;;10.12;50.70
46690;BME280;32423;45.398;10.874;2023-03-01T09:30:33;100830.69;;;9.65;51.74
46690;BME280;32423;45.398;10.874;2023-03-01T09:33:26;100825.53;;;9.41;51.74
46690;BME280;32423;45.398;10.874;2023-03-01T09:36:19;100836.91;;;9.43;52.26
46690;BME280;32423;45.398;10.874;2023-03-01T09:39:15;100825.13;;;9.48;51.61
46690;BME280;32423;45.398;10.874;2023-03-01T09:42:13;100819.09;;;9.51;50.48
46690;BME280;32423;45.398;10.874;2023-03-01T09:45:14;100810.69;;;9.75;50.70
46690;BME280;32423;45.398;10.874;2023-03-01T09:48:15;100803.47;;;10.15;49.78
46690;BME280;32423;45.398;10.874;2023-03-01T09:51:12;100807.84;;;9.80;50.08
46690;BME280;32423;45.398;10.874;2023-03-01T09:54:05;100786.00;;;9.85;50.88
46690;BME280;32423;45.398;10.874;2023-03-01T09:57:09;100789.78;;;9.62;51.55
46690;BME280;32423;45.398;10.874;2023-03-01T10:00:07;100789.59;;;10.16;50.13
46690;BME280;32423;45.398;10.874;2023-03-01T10:09:03;100785.19;;;10.60;46.81
46690;BME280;32423;45.398;10.874;2023-03-01T10:11:58;100776.47;;;10.80;48.51
46690;BME280;32423;45.398;10.874;2023-03-01T10:15:03;100783.53;;;10.81;47.24
46690;BME280;32423;45.398;10.874;2023-03-01T10:18:06;100777.31;;;10.50;46.63
46690;BME280;32423;45.398;10.874;2023-03-01T10:21:12;100783.88;;;10.26;47.21
46690;BME280;32423;45.398;10.874;2023-03-01T10:24:12;100777.09;;;9.93;47.02
46690;BME280;32423;45.398;10.874;2023-03-01T10:27:17;100775.75;;;10.26;47.51
46690;BME280;32423;45.398;10.874;2023-03-01T10:30:43;100778.09;;;10.19;47.64
46690;BME280;32423;45.398;10.874;2023-03-01T10:33:39;100778.75;;;10.03;47.88
46690;BME280;32423;45.398;10.874;2023-03-01T10:36:35;100777.31;;;10.19;47.96
46690;BME280;32423;45.398;10.874;2023-03-01T10:39:32;100768.06;;;10.06;47.46
46690;BME280;32423;45.398;10.874;2023-03-01T10:42:27;100762.84;;;10.10;47.91
46690;BME280;32423;45.398;10.874;2023-03-01T10:45:36;100741.03;;;10.23;48.08
46690;BME280;32423;45.398;10.874;2023-03-01T10:48:32;100750.66;;;10.29;47.11
46690;BME280;32423;45.398;10.874;2023-03-01T10:51:26;100746.84;;;10.08;47.66
46690;BME280;32423;45.398;10.874;2023-03-01T10:54:21;100750.94;;;10.19;47.32
46690;BME280;32423;45.398;10.874;2023-03-01T10:57:29;100758.84;;;10.78;46.03
46690;BME280;32423;45.398;10.874;2023-03-01T11:00:25;100747.81;;;10.83;45.14
46690;BME280;32423;45.398;10.874;2023-03-01T11:03:20;100749.06;;;10.68;45.55
46690;BME280;32423;45.398;10.874;2023-03-01T11:09:26;100745.38;;;10.64;45.69
46690;BME280;32423;45.398;10.874;2023-03-01T11:12:22;100754.78;;;11.14;44.38
46690;BME280;32423;45.398;10.874;2023-03-01T11:15:25;100756.41;;;11.33;44.57
46690;BME280;32423;45.398;10.874;2023-03-01T11:18:26;100749.72;;;11.47;44.28
46690;BME280;32423;45.398;10.874;2023-03-01T11:21:22;100759.28;;;11.53;44.51
46690;BME280;32423;45.398;10.874;2023-03-01T11:24:15;100757.34;;;11.28;44.94
46690;BME280;32423;45.398;10.874;2023-03-01T11:27:35;100760.91;;;11.37;44.43
46690;BME280;32423;45.398;10.874;2023-03-01T11:30:29;100761.84;;;11.15;45.38
46690;BME280;32423;45.398;10.874;2023-03-01T11:36:33;100774.19;;;11.22;44.94
46690;BME280;32423;45.398;10.874;2023-03-01T11:39:40;100778.97;;;11.16;43.52
46690;BME280;32423;45.398;10.874;2023-03-01T11:43:01;100770.75;;;10.90;44.82
46690;BME280;32423;45.398;10.874;2023-03-01T11:49:30;100780.59;;;10.78;43.89
46690;BME280;32423;45.398;10.874;2023-03-01T12:02:40;100792.72;;;10.63;45.02
46690;BME280;32423;45.398;10.874;2023-03-01T12:05:46;100786.63;;;11.05;43.75
46690;BME280;32423;45.398;10.874;2023-03-01T12:08:51;100795.06;;;10.87;43.52
46690;BME280;32423;45.398;10.874;2023-03-01T12:11:56;100789.88;;;10.15;44.22
46690;BME280;32423;45.398;10.874;2023-03-01T12:14:59;100784.94;;;11.44;44.41
46690;BME280;32423;45.398;10.874;2023-03-01T12:18:13;100791.69;;;11.72;43.04
46690;BME280;32423;45.398;10.874;2023-03-01T12:21:25;100775.34;;;11.98;42.59
46690;BME280;32423;45.398;10.874;2023-03-01T12:31:33;100775.50;;;11.76;43.67
46690;BME280;32423;45.398;10.874;2023-03-01T12:34:52;100790.38;;;11.44;45.85
46690;BME280;32423;45.398;10.874;2023-03-01T12:38:08;100776.41;;;11.28;46.25
46690;BME280;32423;45.398;10.874;2023-03-01T12:41:41;100774.00;;;11.09;46.94
46690;BME280;32423;45.398;10.874;2023-03-01T12:44:52;100769.16;;;10.98;47.04
46690;BME280;32423;45.398;10.874;2023-03-01T12:48:12;100770.53;;;10.39;49.68
46690;BME280;32423;45.398;10.874;2023-03-01T12:51:22;100768.78;;;10.43;50.36
46690;BME280;32423;45.398;10.874;2023-03-01T12:54:23;100776.56;;;10.05;50.67
46690;BME280;32423;45.398;10.874;2023-03-01T12:57:24;100764.94;;;9.68;52.44
46690;BME280;32423;45.398;10.874;2023-03-01T13:00:30;100758.88;;;9.71;52.41
46690;BME280;32423;45.398;10.874;2023-03-01T13:03:53;100748.41;;;9.78;52.01
46690;BME280;32423;45.398;10.874;2023-03-01T13:10:51;100721.81;;;9.89;53.33
46690;BME280;32423;45.398;10.874;2023-03-01T13:13:42;100740.22;;;10.23;52.91
46690;BME280;32423;45.398;10.874;2023-03-01T13:16:41;100727.63;;;9.74;52.97
46690;BME280;32423;45.398;10.874;2023-03-01T13:19:40;100721.97;;;9.93;53.33
46690;BME280;32423;45.398;10.874;2023-03-01T13:22:49;100724.47;;;9.58;54.95
46690;BME280;32423;45.398;10.874;2023-03-01T13:26:12;100728.09;;;9.98;53.06
46690;BME280;32423;45.398;10.874;2023-03-01T13:29:25;100723.31;;;10.04;52.56
46690;BME280;32423;45.398;10.874;2023-03-01T13:32:37;100719.94;;;9.98;52.25
46690;BME280;32423;45.398;10.874;2023-03-01T13:35:47;100715.22;;;10.12;50.11
46690;BME280;32423;45.398;10.874;2023-03-01T13:38:48;100733.16;;;9.91;50.97
46690;BME280;32423;45.398;10.874;2023-03-01T13:41:50;100722.09;;;9.65;49.96
46690;BME280;32423;45.398;10.874;2023-03-01T13:44:45;100709.66;;;9.64;49.21
46690;BME280;32423;45.398;10.874;2023-03-01T13:47:37;100718.97;;;9.72;49.71
46690;BME280;32423;45.398;10.874;2023-03-01T13:50:34;100710.47;;;9.65;51.32
46690;BME280;32423;45.398;10.874;2023-03-01T13:53:31;100712.13;;;9.52;52.64
46690;BME280;32423;45.398;10.874;2023-03-01T13:56:36;100721.75;;;9.58;51.64
46690;BME280;32423;45.398;10.874;2023-03-01T13:59:31;100716.81;;;9.02;53.44
46690;BME280;32423;45.398;10.874;2023-03-01T14:02:28;100712.25;;;9.11;53.46
46690;BME280;32423;45.398;10.874;2023-03-01T14:05:18;100715.06;;;9.06;53.11
46690;BME280;32423;45.398;10.874;2023-03-01T14:08:22;100715.66;;;9.17;53.74
46690;BME280;32423;45.398;10.874;2023-03-01T14:11:49;100708.94;;;9.14;53.00
46690;BME280;32423;45.398;10.874;2023-03-01T14:18:21;100698.53;;;8.80;55.67
46690;BME280;32423;45.398;10.874;2023-03-01T14:21:20;100717.94;;;8.60;58.47
46690;BME280;32423;45.398;10.874;2023-03-01T14:24:24;100719.47;;;8.52;60.44
46690;BME280;32423;45.398;10.874;2023-03-01T14:27:20;100720.84;;;8.36;60.60
46690;BME280;32423;45.398;10.874;2023-03-01T14:30:22;100720.13;;;8.85;62.68
46690;BME280;32423;45.398;10.874;2023-03-01T14:33:30;100720.28;;;9.16;66.13
46690;BME280;32423;45.398;10.874;2023-03-01T14:36:26;100728.69;;;9.51;65.39
46690;BME280;32423;45.398;10.874;2023-03-01T14:39:26;100730.81;;;9.76;64.88
46690;BME280;32423;45.398;10.874;2023-03-01T14:42:21;100732.03;;;9.92;64.46
46690;BME280;32423;45.398;10.874;2023-03-01T14:45:16;100735.44;;;10.20;63.74
46690;BME280;32423;45.398;10.874;2023-03-01T14:48:13;100733.13;;;10.36;61.85
46690;BME280;32423;45.398;10.874;2023-03-01T14:51:07;100731.09;;;10.50;60.26
46690;BME280;32423;45.398;10.874;2023-03-01T14:54:01;100734.81;;;10.62;59.96
46690;BME280;32423;45.398;10.874;2023-03-01T14:56:54;100720.91;;;10.72;59.82
46690;BME280;32423;45.398;10.874;2023-03-01T14:59:49;100726.56;;;10.85;58.73
46690;BME280;32423;45.398;10.874;2023-03-01T15:02:45;100725.16;;;10.96;57.78
46690;BME280;32423;45.398;10.874;2023-03-01T15:05:37;100727.53;;;10.97;56.95
46690;BME280;32423;45.398;10.874;2023-03-01T15:08:30;100732.06;;;11.10;56.93
46690;BME280;32423;45.398;10.874;2023-03-01T15:11:29;100726.75;;;11.14;56.97
46690;BME280;32423;45.398;10.874;2023-03-01T15:14:44;100720.84;;;11.21;57.20
46690;BME280;32423;45.398;10.874;2023-03-01T15:17:41;100714.44;;;11.34;57.29
46690;BME280;32423;45.398;10.874;2023-03-01T15:20:32;100724.38;;;11.30;57.71
46690;BME280;32423;45.398;10.874;2023-03-01T15:23:28;100717.16;;;11.34;57.81
46690;BME280;32423;45.398;10.874;2023-03-01T15:26:44;100727.28;;;11.42;57.38
46690;BME280;32423;45.398;10.874;2023-03-01T15:29:39;100730.31;;;11.32;57.63
46690;BME280;32423;45.398;10.874;2023-03-01T15:32:37;100734.47;;;11.29;57.94
46690;BME280;32423;45.398;10.874;2023-03-01T15:35:41;100723.09;;;11.44;57.98
46690;BME280;32423;45.398;10.874;2023-03-01T15:38:56;100724.22;;;11.43;57.95
46690;BME280;32423;45.398;10.874;2023-03-01T15:41:53;100731.13;;;11.41;57.17
46690;BME280;32423;45.398;10.874;2023-03-01T15:44:47;100731.41;;;11.13;58.42
46690;BME280;32423;45.398;10.874;2023-03-01T15:47:43;100737.63;;;10.97;58.66
46690;BME280;32423;45.398;10.874;2023-03-01T15:50:40;100738.75;;;11.13;58.83
46690;BME280;32423;45.398;10.874;2023-03-01T15:53:35;100738.75;;;10.96;59.61
46690;BME280;32423;45.398;10.874;2023-03-01T15:56:27;100732.69;;;11.16;59.76
46690;BME280;32423;45.398;10.874;2023-03-01T15:59:19;100734.94;;;11.05;59.65
46690;BME280;32423;45.398;10.874;2023-03-01T16:02:11;100731.41;;;10.96;60.76
46690;BME280;32423;45.398;10.874;2023-03-01T16:05:04;100737.50;;;11.10;60.69
46690;BME280;32423;45.398;10.874;2023-03-01T16:07:57;100740.66;;;10.95;60.27
46690;BME280;32423;45.398;10.874;2023-03-01T16:10:52;100732.50;;;10.95;60.35
46690;BME280;32423;45.398;10.874;2023-03-01T16:13:48;100733.63;;;11.03;60.02
46690;BME280;32423;45.398;10.874;2023-03-01T16:16:40;100738.91;;;10.99;60.52
46690;BME280;32423;45.398;10.874;2023-03-01T16:19:34;100748.34;;;10.93;60.29